CSUN New Campus Station -PST Time - Most Recent Data on bottom of page




           Date/Time      Avg      Avg      Max     Wind      Avg      Max      Min      Avg      Avg    Total      Avg     Batt
                         Wind     Wind     Wind      Dir     Temp     Temp     Temp       RH      Bar     Rain    Solar     Volt
                      Spd MPH      Dir  Spd MPH   at Max    Deg_F    Deg_F    Deg_F        % Press_mb   Inches     W/m2      Min
--------------------------------------------------------------------------------------------------------------------------------
    01/18/2017 00:00      0.3       29      2.9       37     45.5     46.1     45.1       66     1020     0.00        0     13.5
    01/18/2017 00:15      1.0       58      3.7       30     44.8     45.2     44.5       64     1020     0.00        0     13.5
    01/18/2017 00:30      1.2       46      3.6       44     46.3     46.8     45.0       56     1020     0.00        0     13.5
    01/18/2017 00:45      0.4       33      2.5       44     46.7     47.0     46.4       54     1020     0.00        0     13.5
    01/18/2017 01:00      0.2       41      2.2       42     46.0     46.8     44.4       61     1019     0.00        0     13.5
    01/18/2017 01:15      0.0        0      0.0      319     43.7     44.4     43.3       66     1019     0.00        0     13.5
    01/18/2017 01:30      0.0        0      0.0      324     43.1     43.4     42.6       67     1019     0.00        0     13.5
    01/18/2017 01:45      0.7       75      2.6       71     43.0     43.6     42.6       65     1019     0.00        0     13.5
    01/18/2017 02:00      0.3       30      2.6      339     43.3     43.7     43.0       65     1019     0.00        0     13.5
    01/18/2017 02:15      0.2      327      2.2      328     42.9     43.4     42.6       65     1019     0.00        0     13.5
    01/18/2017 02:30      0.0        0      0.0       89     42.2     43.0     41.4       69     1020     0.00        0     13.5
    01/18/2017 02:45      0.0        0      0.0      305     42.0     42.3     41.4       67     1020     0.00        0     13.5
    01/18/2017 03:00      0.0        0      0.0      297     41.7     42.1     41.4       68     1020     0.00        0     13.5
    01/18/2017 03:15      0.0        0      0.0       11     41.7     42.0     41.5       69     1020     0.00        0     13.5
    01/18/2017 03:30      0.0       32      1.2       27     42.5     42.9     41.8       65     1020     0.00        0     13.5
    01/18/2017 03:45      0.0        0      0.0       44     42.3     43.0     42.0       68     1020     0.00        0     13.5
    01/18/2017 04:00      0.3       89      2.1       89     42.1     42.5     41.8       68     1019     0.00        0     13.5
    01/18/2017 04:15      0.0      291      1.2      292     42.2     42.7     41.8       69     1019     0.00        0     13.5
    01/18/2017 04:30      0.2      292      2.1      274     41.4     41.9     41.1       70     1019     0.00        0     13.5
    01/18/2017 04:45      0.2       93      1.2      101     41.5     41.7     41.2       70     1019     0.00        0     13.5
    01/18/2017 05:00      0.8      316      1.6      338     41.2     41.6     41.0       72     1019     0.00        0     13.6
    01/18/2017 05:15      0.0        0      0.0      311     40.8     41.2     40.0       73     1020     0.00        0     13.6
    01/18/2017 05:30      0.0        0      0.0      312     40.0     40.3     39.7       74     1020     0.00        0     13.6
    01/18/2017 05:45      0.0        0      0.0      336     39.9     40.1     39.7       75     1020     0.00        0     13.6
    01/18/2017 06:00      0.0       55      1.1       59     39.7     40.0     39.4       76     1020     0.00        0     13.6
    01/18/2017 06:15      0.0        0      0.0       45     39.8     40.1     39.4       76     1020     0.00        0     13.6
    01/18/2017 06:30      0.0        0      0.0       75     39.2     39.6     38.9       77     1020     0.00        0     13.6
    01/18/2017 06:45      0.0        0      0.0      282     39.2     39.6     38.9       78     1020     0.00        0     13.6
    01/18/2017 07:00      0.0      322      0.8      328     39.7     40.0     39.4       77     1020     0.00        2     13.6
    01/18/2017 07:15      0.0        0      0.0      333     39.3     39.8     39.0       78     1021     0.00        8     13.6
    01/18/2017 07:30      0.0        0      0.0      297     39.4     39.9     38.9       78     1021     0.00       25     13.6
    01/18/2017 07:45      0.0        0      0.0      297     40.1     40.5     39.8       77     1021     0.00       34     13.6
    01/18/2017 08:00      0.0        0      0.0      187     41.6     42.8     40.4       74     1021     0.00       37     13.5
    01/18/2017 08:15      0.0        0      0.0      230     43.9     45.1     42.7       65     1021     0.00       52     13.5
    01/18/2017 08:30      0.0        0      0.0      185     45.5     46.1     45.1       62     1021     0.00       59     13.5
    01/18/2017 08:45      0.0      257      0.9      260     46.4     47.3     45.8       60     1021     0.00      130     13.5
    01/18/2017 09:00      0.0        0      0.0      263     48.2     49.0     47.2       55     1021     0.00      105     13.5
    01/18/2017 09:15      0.2        7      2.1        8     49.6     50.7     48.8       58     1021     0.00      133     13.4
    01/18/2017 09:30      0.1       91      1.5      166     52.0     53.4     50.6       64     1021     0.00      216     13.4
    01/18/2017 09:45      0.2      256      2.1       67     54.0     54.5     53.2       64     1021     0.00      252     13.3
    01/18/2017 10:00      0.7      221      3.2      193     53.9     54.4     53.6       65     1021     0.00      413     13.3
    01/18/2017 10:15      0.4      218      3.1      168     54.8     56.2     53.7       61     1021     0.00      446     13.2
    01/18/2017 10:30      1.0      127      4.1      148     56.1     56.5     55.7       59     1021     0.00      502     13.2
    01/18/2017 10:45      0.9      223      5.5      216     56.6     57.3     56.0       60     1021     0.00      433     13.2
    01/18/2017 11:00      1.9      158      6.0      142     56.4     56.8     56.0       58     1020     0.00      400     13.2
    01/18/2017 11:15      0.9      142      4.9      138     56.7     57.1     56.1       58     1020     0.00      377     13.2
    01/18/2017 11:30      1.7      107      6.2       72     56.9     57.6     56.2       57     1020     0.00      375     13.2
    01/18/2017 11:45      2.5      120      5.3      135     57.1     57.6     56.5       59     1019     0.00      386     13.2
    01/18/2017 12:00      2.9      136      6.4      140     57.2     57.6     56.9       58     1019     0.00      327     13.2
    01/18/2017 12:15      2.6      132      6.3      132     57.7     58.0     57.3       57     1019     0.00      307     13.2
    01/18/2017 12:30      2.5      151      5.5      143     57.2     57.4     57.0       58     1018     0.00      242     13.2
    01/18/2017 12:45      2.0      172      4.8      196     57.3     57.5     57.0       59     1018     0.00      224     13.2
    01/18/2017 13:00      3.0      156      7.2      164     57.9     58.4     57.4       59     1018     0.00      347     13.2
    01/18/2017 13:15      2.6      169      7.7      153     58.6     59.3     58.0       55     1018     0.00      387     13.2
    01/18/2017 13:30      2.1      111      6.8      112     58.2     59.1     57.6       57     1018     0.00      226     13.2
    01/18/2017 13:45      2.6       90      6.3       97     57.5     57.9     57.3       58     1018     0.00      202     13.2
    01/18/2017 14:00      2.1      106      7.0       98     58.2     58.6     57.6       57     1017     0.00      270     13.2
    01/18/2017 14:15      2.8      169      7.1      167     58.4     58.8     57.8       60     1018     0.00      175     13.2
    01/18/2017 14:30      2.8      221      6.6      204     57.9     58.3     57.6       58     1018     0.00      154     13.2
    01/18/2017 14:45      4.7      207      9.9      191     57.6     57.9     57.2       59     1018     0.00      115     13.2
    01/18/2017 15:00      5.3      252     10.3      273     56.8     57.5     55.9       64     1019     0.00       59     13.2
    01/18/2017 15:15      4.1      278     11.7      256     55.6     56.1     55.1       66     1019     0.00       60     13.2
    01/18/2017 15:30      3.6      288      7.7      304     54.9     55.4     54.4       68     1019     0.00       44     13.2
    01/18/2017 15:45      4.8      274      9.9      232     54.4     54.8     54.0       68     1019     0.00       41     13.3
    01/18/2017 16:00      3.5      272      8.5      244     53.9     54.2     53.7       69     1019     0.00       27     13.3
    01/18/2017 16:15      3.6      259      9.3      234     53.6     53.9     53.3       69     1018     0.00       19     13.3
    01/18/2017 16:30      4.4      258      9.8      249     53.2     53.4     52.9       69     1018     0.00       14     13.3
    01/18/2017 16:45      4.6      262     10.3      280     52.9     53.1     52.7       69     1018     0.00        9     13.3
    01/18/2017 17:00      3.7      256      9.8      279     52.7     53.0     52.5       69     1018     0.00        3     13.3
    01/18/2017 17:15      3.8      241      9.0      254     52.7     52.9     52.5       68     1018     0.00        0     13.3
    01/18/2017 17:30      3.1      267      8.0      255     52.7     52.9     52.5       68     1018     0.00        0     13.3
    01/18/2017 17:45      3.9      241     10.2      242     52.7     52.9     52.5       67     1019     0.00        0     13.3
    01/18/2017 18:00      2.3      229      7.2      261     52.6     52.8     52.4       67     1019     0.00        0     13.3
    01/18/2017 18:15      2.7      250      7.1      303     52.3     52.8     51.6       72     1019     0.00        0     13.3
    01/18/2017 18:30      1.0      243      4.5      257     51.4     51.8     51.0       77     1019     0.01        0     13.3
    01/18/2017 18:45      0.2       11      1.3      312     50.9     51.3     50.5       79     1019     0.02        0     13.3
    01/18/2017 19:00      1.4       72      3.3      104     50.6     50.8     50.4       82     1018     0.01        0     13.4
    01/18/2017 19:15      2.2       89      4.0      102     50.6     50.9     50.4       84     1018     0.01        0     13.4
    01/18/2017 19:30      2.3       81      4.8       79     50.3     50.6     50.1       85     1018     0.00        0     13.4
    01/18/2017 19:45      1.9       71      4.6       84     50.2     50.4     49.9       85     1017     0.01        0     13.4
    01/18/2017 20:00      2.8       55      5.0       30     50.1     50.3     49.9       85     1017     0.00        0     13.4
    01/18/2017 20:15      2.7       55      5.4       53     50.1     50.4     49.9       84     1017     0.00        0     13.4
    01/18/2017 20:30      1.2       68      4.1       34     50.2     50.4     50.0       84     1017     0.00        0     13.4
    01/18/2017 20:45      0.4      280      2.3      116     50.2     50.4     49.9       85     1017     0.00        0     13.4
    01/18/2017 21:00      0.4      132      2.0      137     50.0     50.3     49.8       85     1017     0.01        0     13.4
    01/18/2017 21:15      1.1      207      2.6      187     49.9     50.1     49.7       85     1017     0.00        0     13.4
    01/18/2017 21:30      1.4      156      3.4      181     50.1     50.4     49.8       85     1017     0.00        0     13.4
    01/18/2017 21:45      0.6      131      2.8      149     50.2     50.4     50.0       84     1017     0.00        0     13.4
    01/18/2017 22:00      0.8      189      4.1      169     50.0     50.3     49.8       84     1017     0.00        0     13.4
    01/18/2017 22:15      1.5      199      4.8      198     50.0     50.3     49.7       83     1017     0.00        0     13.4
    01/18/2017 22:30      0.0      185      1.1      183     50.1     50.3     49.8       84     1016     0.00        0     13.4
    01/18/2017 22:45      0.3      159      2.2      166     49.8     50.0     49.4       84     1016     0.00        0     13.4
    01/18/2017 23:00      1.0      162      3.2      166     49.6     49.8     49.4       85     1016     0.00        0     13.4
    01/18/2017 23:15      1.8      162      3.8      161     49.6     49.8     49.4       85     1016     0.00        0     13.4
    01/18/2017 23:30      2.1      170      6.6      144     49.7     49.9     49.5       84     1015     0.00        0     13.4
    01/18/2017 23:45      1.7      182      4.5      180     49.8     50.0     49.6       85     1015     0.00        0     13.4
    01/19/2017 00:00      2.6      186      5.2      201     49.9     50.1     49.7       84     1015     0.00        0     13.4
    01/19/2017 00:15      3.0      186      6.8      189     49.9     50.1     49.6       85     1015     0.00        0     13.4
    01/19/2017 00:30      2.6      210      6.1      201     49.9     50.1     49.6       84     1015     0.00        0     13.4
    01/19/2017 00:45      1.3      223      3.5      233     50.0     50.2     49.8       83     1015     0.00        0     13.4
    01/19/2017 01:00      2.4      237      5.5      234     50.1     50.3     49.8       82     1015     0.00        0     13.4
    01/19/2017 01:15      1.5      171      5.0      151     50.2     50.4     50.0       81     1015     0.00        0     13.4
    01/19/2017 01:30      1.3      163      5.9      210     50.3     50.5     50.1       81     1015     0.00        0     13.4
    01/19/2017 01:45      2.0      140      5.5      175     50.1     50.4     49.6       83     1015     0.05        0     13.4
    01/19/2017 02:00      0.3       96      2.5       65     49.7     49.9     49.4       85     1015     0.02        0     13.4
    01/19/2017 02:15      2.8       83      7.2       84     49.6     49.8     49.4       87     1015     0.04        0     13.4
    01/19/2017 02:30      2.7      106      7.3       84     49.4     49.6     49.0       88     1015     0.05        0     13.4
    01/19/2017 02:45      3.1      100      9.5       71     49.2     49.4     48.9       89     1014     0.03        0     13.4
    01/19/2017 03:00      4.6       92      8.9       88     49.2     49.4     49.0       89     1014     0.03        0     13.4
    01/19/2017 03:15      4.9       97     10.6       96     49.1     49.3     49.0       90     1014     0.04        0     13.4
    01/19/2017 03:30      4.8       95     12.1       96     49.3     49.5     49.0       90     1013     0.02        0     13.4
    01/19/2017 03:45      5.6       94     12.9       79     49.4     49.7     49.2       90     1013     0.03        0     13.4
    01/19/2017 04:00      3.4      101      7.9       90     49.7     49.8     49.5       90     1013     0.03        0     13.4
    01/19/2017 04:15      2.2      107      9.3      128     49.7     49.9     49.5       91     1013     0.02        0     13.4
    01/19/2017 04:30      2.6       90      8.9       77     49.5     49.8     49.2       91     1013     0.09        0     13.4
    01/19/2017 04:45      4.3      100      9.5       67     49.2     49.5     49.0       91     1013     0.09        0     13.4
    01/19/2017 05:00      3.8       95      8.7      161     49.1     49.3     49.0       91     1012     0.05        0     13.4
    01/19/2017 05:15      3.0      115      9.5      149     49.0     49.3     48.9       91     1012     0.01        0     13.4
    01/19/2017 05:30      4.0      125     11.3      154     49.1     49.4     48.9       91     1012     0.02        0     13.4
    01/19/2017 05:45      3.3      108      9.2      118     49.0     49.1     48.9       91     1012     0.03        0     13.4
    01/19/2017 06:00      3.7      129      8.0      147     48.9     49.1     48.8       91     1012     0.03        0     13.4
    01/19/2017 06:15      3.1      132      9.1      121     48.9     49.1     48.7       91     1012     0.01        0     13.4
    01/19/2017 06:30      3.2      149      7.9      155     49.0     49.2     48.8       91     1012     0.00        0     13.4
    01/19/2017 06:45      2.4      121      7.0      168     49.0     49.3     48.8       91     1012     0.01        0     13.4
    01/19/2017 07:00      1.9      121      8.2      111     49.2     49.3     49.0       91     1012     0.00        0     13.4
    01/19/2017 07:15      3.1      255      8.6      153     49.2     49.5     49.1       91     1012     0.00        2     13.4
    01/19/2017 07:30      4.5      102      9.1       86     49.4     49.6     49.1       91     1012     0.00        9     13.4
    01/19/2017 07:45      3.1       87      6.1       94     49.6     49.9     49.3       91     1012     0.00       39     13.4
    01/19/2017 08:00      2.5      109      7.5      107     49.8     50.0     49.6       91     1012     0.00       35     13.4
    01/19/2017 08:15      3.0      166      9.4      247     50.0     50.8     49.6       91     1012     0.00      115     13.4
    01/19/2017 08:30      0.8      140      3.6      148     50.4     50.7     50.1       91     1013     0.00       39     13.4
    01/19/2017 08:45      1.9      128      4.9      136     51.0     51.7     50.3       91     1013     0.00       68     13.4
    01/19/2017 09:00      3.3      138      6.5      128     51.8     52.4     51.3       91     1013     0.00      111     13.4
    01/19/2017 09:15      2.1      120      6.9      162     52.4     52.9     52.1       91     1013     0.00      214     13.3
    01/19/2017 09:30      2.6      118      6.1       84     53.0     53.7     52.3       90     1013     0.00      277     13.3
    01/19/2017 09:45      5.1      156     10.5      187     53.6     54.0     53.1       88     1013     0.00      219     13.3
    01/19/2017 10:00      3.2      183      7.0      220     53.8     54.5     53.3       85     1013     0.00      288     13.2
    01/19/2017 10:15      2.2      199      6.2      178     54.1     54.6     53.8       79     1013     0.00      131     13.2
    01/19/2017 10:30      1.8      239      4.9      297     53.8     54.1     53.5       79     1013     0.00       61     13.2
    01/19/2017 10:45      3.7      247      9.6      254     54.3     54.8     53.5       71     1013     0.00      191     13.3
    01/19/2017 11:00      4.0      259      7.9      257     54.4     54.6     54.1       69     1013     0.00      121     13.3
    01/19/2017 11:15      4.0      248     10.5      249     55.6     57.4     54.4       61     1013     0.00      418     13.3
    01/19/2017 11:30      5.5      246     11.7      238     57.2     58.2     56.3       61     1013     0.00      289     13.2
    01/19/2017 11:45      4.3      258      8.8      270     56.3     56.8     55.9       62     1013     0.00      253     13.2
    01/19/2017 12:00      4.3      255     14.9      211     57.8     58.6     56.6       59     1012     0.00      609     13.2
    01/19/2017 12:15      6.1      250     13.2      255     58.7     58.9     58.4       57     1012     0.00      619     13.2
    01/19/2017 12:30      6.6      266     15.2      246     58.6     59.1     58.1       55     1012     0.00      539     13.2
    01/19/2017 12:45      7.0      246     16.3      260     58.9     59.6     58.2       52     1011     0.00      576     13.1
    01/19/2017 13:00      8.1      256     18.0      249     58.8     59.5     58.0       52     1011     0.00      409     13.2
    01/19/2017 13:15      7.5      258     15.3      269     59.1     59.5     58.4       47     1011     0.00      536     13.1
    01/19/2017 13:30      6.4      253     13.8      245     59.1     59.4     58.6       49     1011     0.00      427     13.1
    01/19/2017 13:45      7.2      262     14.2      263     59.0     59.5     58.2       51     1011     0.00      325     13.2
    01/19/2017 14:00      5.9      244     13.1      249     58.4     59.3     57.8       51     1011     0.00      313     13.2
    01/19/2017 14:15      5.7      243     13.2      239     60.0     60.5     59.1       51     1011     0.00      506     13.1
    01/19/2017 14:30      5.8      250     14.6      249     59.5     60.1     59.0       52     1011     0.00      407     13.1
    01/19/2017 14:45      7.1      254     19.1      242     59.4     60.4     58.4       55     1010     0.00      290     13.1
    01/19/2017 15:00      6.7      267     13.1      254     59.0     59.4     58.6       53     1010     0.00      350     13.1
    01/19/2017 15:15      6.3      236     14.1      235     59.0     59.4     58.6       54     1010     0.00      264     13.1
    01/19/2017 15:30      6.9      244     17.8      256     58.1     59.1     57.3       58     1010     0.00      186     13.1
    01/19/2017 15:45      6.7      247     16.8      252     57.9     58.5     57.6       57     1010     0.00      222     13.2
    01/19/2017 16:00      5.9      221     15.4      253     58.0     58.4     57.7       56     1010     0.00      229     13.1
    01/19/2017 16:15      4.8      230     11.3      216     57.6     57.9     57.3       57     1010     0.00      153     13.2
    01/19/2017 16:30      4.8      227     12.4      260     56.5     57.4     56.0       60     1010     0.00       68     13.2
    01/19/2017 16:45      5.0      241     12.4      252     55.9     56.3     55.5       62     1010     0.00       31     13.2
    01/19/2017 17:00      4.1      244     10.9      249     55.2     55.7     54.9       62     1011     0.00       19     13.2
    01/19/2017 17:15      3.7      241      9.8      257     54.9     55.1     54.7       63     1011     0.00        6     13.3
    01/19/2017 17:30      4.2      240      9.0      252     54.7     55.0     54.3       63     1011     0.00        1     13.3
    01/19/2017 17:45      4.0      234      8.8      241     54.2     54.6     54.0       63     1011     0.00        0     13.3
    01/19/2017 18:00      4.3      240      9.7      257     54.0     54.2     53.7       64     1011     0.00        0     13.3
    01/19/2017 18:15      4.0      237      9.9      249     53.7     53.9     53.4       65     1011     0.00        0     13.3
    01/19/2017 18:30      3.2      230     10.7      238     53.3     53.7     53.0       67     1011     0.00        0     13.3
    01/19/2017 18:45      2.7      222      8.4      256     52.8     53.1     52.5       67     1011     0.00        0     13.3
    01/19/2017 19:00      3.3      213      8.2      195     52.5     52.8     52.2       66     1011     0.00        0     13.3
    01/19/2017 19:15      3.5      210      7.1      179     52.2     52.5     51.9       67     1011     0.00        0     13.3
    01/19/2017 19:30      2.6      217      6.6      200     51.9     52.1     51.7       69     1011     0.00        0     13.4
    01/19/2017 19:45      2.3      223      6.3      212     51.8     52.0     51.6       69     1011     0.00        0     13.4
    01/19/2017 20:00      1.6      221      4.6      212     51.5     51.9     51.2       70     1011     0.00        0     13.4
    01/19/2017 20:15      3.5      203      7.6      211     51.6     52.0     51.4       70     1011     0.00        0     13.4
    01/19/2017 20:30      1.6      216      3.2      194     51.2     51.7     50.9       71     1011     0.00        0     13.4
    01/19/2017 20:45      1.9      202      5.0      191     51.3     51.6     50.9       70     1011     0.00        0     13.4
    01/19/2017 21:00      1.7      115      3.8       85     51.1     51.5     50.7       71     1011     0.00        0     13.4
    01/19/2017 21:15      0.5      139      2.0      161     50.5     50.9     50.2       73     1011     0.00        0     13.4
    01/19/2017 21:30      1.6      152      3.3      167     50.3     50.7     50.1       74     1011     0.00        0     13.4
    01/19/2017 21:45      2.3      152      3.8      131     50.6     50.9     50.4       75     1011     0.00        0     13.4
    01/19/2017 22:00      2.2      147      4.2      147     50.9     51.1     50.6       76     1011     0.00        0     13.4
    01/19/2017 22:15      2.6      150      4.8      155     50.8     51.0     50.5       78     1011     0.00        0     13.4
    01/19/2017 22:30      1.8      137      5.0      149     50.4     50.7     50.1       81     1011     0.00        0     13.4
    01/19/2017 22:45      0.7      113      2.1       94     50.3     50.4     50.1       83     1011     0.00        0     13.4
    01/19/2017 23:00      0.8      105      2.1       91     50.3     50.4     50.0       83     1010     0.00        0     13.4
    01/19/2017 23:15      1.0      109      3.9      143     49.9     50.3     49.6       84     1010     0.00        0     13.4
    01/19/2017 23:30      0.8      123      2.1      119     49.4     49.8     48.9       84     1010     0.00        0     13.4
    01/19/2017 23:45      0.3      108      1.3      101     48.7     49.1     48.3       85     1010     0.00        0     13.4
    01/20/2017 00:00      0.9      147      2.7      152     48.1     48.5     47.6       86     1010     0.00        0     13.4
    01/20/2017 00:15      1.6      193      4.2      207     48.0     48.7     47.6       87     1010     0.00        0     13.4
    01/20/2017 00:30      2.7      197      4.9      198     49.0     49.4     48.5       85     1010     0.00        0     13.4
    01/20/2017 00:45      3.5      179      6.0      194     49.2     49.5     49.0       84     1010     0.00        0     13.4
    01/20/2017 01:00      1.6      164      3.0      155     49.0     49.3     48.7       84     1010     0.00        0     13.4
    01/20/2017 01:15      1.3      198      3.8      186     48.9     49.2     48.6       85     1010     0.00        0     13.4
    01/20/2017 01:30      1.5      148      4.7      183     49.2     49.5     49.0       85     1010     0.00        0     13.4
    01/20/2017 01:45      0.8      175      2.5      200     49.2     49.6     49.0       85     1010     0.00        0     13.4
    01/20/2017 02:00      1.3      169      3.1      179     49.2     49.4     49.0       85     1010     0.00        0     13.4
    01/20/2017 02:15      0.5       96      1.8       94     49.3     49.5     49.0       85     1009     0.01        0     13.4
    01/20/2017 02:30      1.8       74      3.9       78     49.2     49.4     49.0       86     1009     0.01        0     13.4
    01/20/2017 02:45      0.7      105      2.4       95     49.1     49.3     48.9       87     1008     0.01        0     13.4
    01/20/2017 03:00      0.5      144      2.1      143     49.0     49.2     48.9       88     1008     0.00        0     13.4
    01/20/2017 03:15      0.9      139      2.7      126     49.1     49.4     49.0       88     1008     0.02        0     13.4
    01/20/2017 03:30      1.5      145      3.5      166     49.1     49.3     48.9       88     1008     0.00        0     13.4
    01/20/2017 03:45      2.1      146      4.2      137     48.9     49.1     48.6       89     1008     0.01        0     13.4
    01/20/2017 04:00      3.8      163      6.6      179     48.7     48.9     48.4       89     1008     0.01        0     13.4
    01/20/2017 04:15      4.3      174      8.5      181     48.4     48.7     48.1       89     1008     0.01        0     13.4
    01/20/2017 04:30      2.9      149      5.2      127     48.1     48.4     47.9       89     1008     0.01        0     13.4
    01/20/2017 04:45      2.2      131      4.8      130     47.9     48.1     47.7       90     1007     0.00        0     13.4
    01/20/2017 05:00      1.9      130      5.3      154     47.8     48.0     47.6       90     1007     0.00        0     13.4
    01/20/2017 05:15      1.4      135      4.9      164     47.7     48.0     47.6       90     1007     0.00        0     13.4
    01/20/2017 05:30      1.2      128      3.4      118     47.8     48.1     47.6       90     1007     0.00        0     13.4
    01/20/2017 05:45      2.0      112      7.3       85     48.1     48.3     47.9       90     1007     0.00        0     13.4
    01/20/2017 06:00      2.7      104      7.0       77     48.0     48.3     47.8       90     1006     0.01        0     13.4
    01/20/2017 06:15      2.0      109      5.6       91     47.7     48.0     47.5       90     1006     0.02        0     13.4
    01/20/2017 06:30      1.7      102      5.1       77     47.6     47.8     47.3       90     1006     0.02        0     13.4
    01/20/2017 06:45      2.3       98      7.0       94     47.7     48.0     47.5       90     1006     0.01        0     13.4
    01/20/2017 07:00      2.5      114      8.0      148     47.9     48.1     47.6       90     1006     0.02        0     13.4
    01/20/2017 07:15      3.3      133      9.3      147     47.9     48.1     47.6       90     1006     0.03        2     13.4
    01/20/2017 07:30      4.5      141      9.1      160     47.9     48.1     47.8       91     1005     0.08        5     13.4
    01/20/2017 07:45      4.0      134      9.4      140     47.9     48.2     47.7       91     1005     0.04        7     13.4
    01/20/2017 08:00      3.6      115     10.0      135     48.1     48.3     47.9       91     1004     0.00        6     13.4
    01/20/2017 08:15      4.2      131     10.6       95     48.2     48.5     48.0       91     1004     0.01       15     13.4
    01/20/2017 08:30      4.9      141     13.2      143     48.4     48.6     48.1       91     1004     0.01       14     13.4
    01/20/2017 08:45      6.3      150     12.3      142     48.4     48.6     48.2       91     1004     0.03       26     13.4
    01/20/2017 09:00      4.9      137      9.3      158     48.4     48.6     48.1       91     1004     0.02       28     13.4
    01/20/2017 09:15      4.8      122     12.8      142     48.6     48.7     48.3       91     1003     0.02       46     13.4
    01/20/2017 09:30      5.5      123     12.6      100     48.6     49.0     48.3       91     1003     0.01       75     13.4
    01/20/2017 09:45      5.2      114     17.9      111     48.9     49.0     48.5       91     1002     0.02       44     13.4
    01/20/2017 10:00      5.0      116     15.9      113     48.8     49.0     48.6       91     1002     0.02       27     13.4
    01/20/2017 10:15      6.4      119     15.3      129     49.1     49.5     48.8       91     1002     0.02       57     13.4
    01/20/2017 10:30      6.6      109     16.7      118     49.5     49.8     49.3       91     1001     0.02       42     13.4
    01/20/2017 10:45      6.0      118     17.4      122     49.6     49.8     49.4       91     1000     0.04       17     13.4
    01/20/2017 11:00      6.8      128     20.4      155     49.7     49.9     49.5       91     1000     0.05       19     13.4
    01/20/2017 11:15      7.7      140     19.0      177     49.6     49.8     49.3       91      999     0.09       16     13.4
    01/20/2017 11:30      8.1      145     16.1      146     49.4     49.6     49.1       91      999     0.07       14     13.4
    01/20/2017 11:45      4.8      126     11.2      153     49.4     49.7     49.1       91      998     0.05       22     13.4
    01/20/2017 12:00      5.3      150      9.7      124     49.6     49.8     49.4       91      998     0.13       17     13.4
    01/20/2017 12:15      3.6      169     10.9      127     49.4     49.8     49.1       91      998     0.28       16     13.4
    01/20/2017 12:30      2.1       39      5.3       29     49.5     50.1     49.0       91      997     0.01      182     13.4
    01/20/2017 12:45      1.9       98      5.4       97     50.2     50.7     49.9       91      997     0.00      161     13.3
    01/20/2017 13:00      1.7      237      4.1      271     50.0     50.4     49.7       91      997     0.09       50     13.3
    01/20/2017 13:15      1.2      175      3.3      182     51.6     53.1     50.0       92      996     0.00      389     13.3
    01/20/2017 13:30      1.6      217      6.9      257     53.3     54.0     52.5       91      996     0.00      398     13.3
    01/20/2017 13:45      5.3      201     15.8      195     53.4     53.9     53.0       88      996     0.00      146     13.3
    01/20/2017 14:00      5.9      225     14.9      188     53.3     53.6     53.1       83      996     0.00      129     13.3
    01/20/2017 14:15      5.9      205     13.6      206     53.5     54.6     53.0       84      995     0.00      236     13.3
    01/20/2017 14:30      6.0      203     18.0      186     55.4     56.1     54.4       74      995     0.00      417     13.3
    01/20/2017 14:45      6.7      232     14.4      195     56.6     57.3     55.9       67      995     0.00      385     13.2
    01/20/2017 15:00      7.2      232     17.4      217     57.3     57.6     56.9       61      995     0.00      326     13.2
    01/20/2017 15:15      7.2      228     18.9      185     56.7     57.5     56.0       59      995     0.00      184     13.2
    01/20/2017 15:30      8.6      238     18.5      257     55.7     56.5     54.7       60      996     0.00      155     13.2
    01/20/2017 15:45      6.6      230     18.1      307     54.1     54.9     53.5       64      996     0.00       50     13.2
    01/20/2017 16:00      4.9      221     10.0      165     53.2     53.7     52.8       65      996     0.00       45     13.3
    01/20/2017 16:15      4.4      230      9.8      261     53.1     53.7     52.7       64      996     0.00      113     13.3
    01/20/2017 16:30      5.8      243     16.8      253     53.5     53.9     53.1       61      996     0.00       92     13.3
    01/20/2017 16:45      6.1      252     19.3      239     53.1     53.4     52.6       61      996     0.00       58     13.3
    01/20/2017 17:00      6.7      251     15.3      244     52.0     52.6     51.3       64      997     0.00       29     13.3
    01/20/2017 17:15      3.9      246     12.4      252     50.9     51.4     50.5       67      997     0.00        8     13.3
    01/20/2017 17:30      4.3      250     11.4      253     50.5     50.8     50.1       69      997     0.00        0     13.3
    01/20/2017 17:45      2.7      228      7.5      262     50.1     50.4     49.9       70      997     0.00        0     13.3
    01/20/2017 18:00      4.2      246     11.6      302     50.1     50.3     49.9       71      997     0.00        0     13.3
    01/20/2017 18:15      3.5      252     10.5      295     50.0     50.2     49.8       71      997     0.00        0     13.4
    01/20/2017 18:30      0.4       41      3.3      338     50.0     50.2     49.8       71      998     0.00        0     13.4
    01/20/2017 18:45      1.3       82      3.2      287     50.2     50.4     49.9       71      998     0.00        0     13.4
    01/20/2017 19:00      2.1      248      7.0      248     50.3     50.5     50.0       71      998     0.00        0     13.4
    01/20/2017 19:15      2.2      223      5.9      267     50.4     50.6     50.1       72      998     0.00        0     13.4
    01/20/2017 19:30      1.4      216      4.0      192     50.4     50.5     50.2       71      998     0.00        0     13.4
    01/20/2017 19:45      0.7      309      3.0      255     50.4     50.7     50.2       73      999     0.00        0     13.4
    01/20/2017 20:00      2.3      262      6.5      301     50.4     50.6     50.1       73      999     0.00        0     13.4
    01/20/2017 20:15      4.3      246     10.0      242     50.5     50.7     50.2       71      999     0.00        0     13.4
    01/20/2017 20:30      4.4      249     10.0      249     50.3     50.5     50.1       69      999     0.00        0     13.4
    01/20/2017 20:45      3.2      246      8.2      253     50.1     50.4     49.8       69     1000     0.00        0     13.4
    01/20/2017 21:00      3.0      240      7.4      244     49.7     50.0     49.5       69     1000     0.00        0     13.4
    01/20/2017 21:15      2.4      231      5.0      228     49.6     49.8     49.4       68     1000     0.00        0     13.4
    01/20/2017 21:30      3.8      229     10.9      253     49.5     49.6     49.2       66     1000     0.00        0     13.4
    01/20/2017 21:45      3.9      241     11.8      262     49.2     49.5     48.9       67     1000     0.00        0     13.4
    01/20/2017 22:00      1.8      272      4.5      241     48.8     49.1     48.4       68     1000     0.00        0     13.4
    01/20/2017 22:15      0.8       34      3.0       31     48.4     48.6     48.1       68     1000     0.00        0     13.4
    01/20/2017 22:30      0.9      190      4.3      233     47.7     48.3     47.2       69     1001     0.00        0     13.4
    01/20/2017 22:45      2.7      244      9.7      232     48.1     48.5     47.7       67     1000     0.00        0     13.4
    01/20/2017 23:00      2.7      229      8.4      239     48.1     48.5     47.8       67     1000     0.00        0     13.4
    01/20/2017 23:15      3.0      251      8.8      258     47.8     48.0     47.5       67     1001     0.00        0     13.4
    01/20/2017 23:30      2.6      235     13.1      246     47.4     47.7     47.1       68     1001     0.00        0     13.4
    01/20/2017 23:45      3.4      278      6.8      255     47.3     47.5     47.1       68     1001     0.00        0     13.4
    01/21/2017 00:00      5.5      264     12.4      258     47.4     47.5     47.2       68     1001     0.00        0     13.4
    01/21/2017 00:15      4.2      262     13.8      240     47.3     47.5     47.0       70     1001     0.00        0     13.4
    01/21/2017 00:30      2.6      248      7.9      240     47.1     47.3     46.8       71     1001     0.00        0     13.4
    01/21/2017 00:45      3.0      247      9.7      245     46.8     47.0     46.6       71     1001     0.00        0     13.4
    01/21/2017 01:00      1.2      251      4.3      197     46.4     46.8     46.0       73     1001     0.00        0     13.4
    01/21/2017 01:15      0.8      197      3.6      288     45.9     46.2     45.6       73     1002     0.00        0     13.5
    01/21/2017 01:30      1.4       54      3.0       60     45.8     46.0     45.5       74     1002     0.00        0     13.5
    01/21/2017 01:45      0.4       51      2.0       98     45.4     45.8     44.9       75     1003     0.00        0     13.5
    01/21/2017 02:00      1.1      144      2.8      174     44.4     45.0     43.8       77     1003     0.00        0     13.5
    01/21/2017 02:15      1.5       62      5.0      167     44.0     44.3     43.7       78     1003     0.00        0     13.5
    01/21/2017 02:30      1.8       36      3.4       35     44.7     45.1     44.1       76     1003     0.00        0     13.5
    01/21/2017 02:45      0.4       63      1.3       98     45.3     45.6     45.0       75     1003     0.00        0     13.5
    01/21/2017 03:00      0.5      203      2.5      154     45.4     45.7     44.9       77     1004     0.00        0     13.5
    01/21/2017 03:15      0.5      320      2.4      354     45.1     45.5     44.8       76     1004     0.00        0     13.5
    01/21/2017 03:30      0.9      297      3.3      294     45.6     46.0     45.2       73     1004     0.00        0     13.5
    01/21/2017 03:45      1.1      298      3.3      236     46.1     46.5     45.8       70     1005     0.00        0     13.4
    01/21/2017 04:00      1.4      273      4.3      295     46.0     46.3     45.7       70     1005     0.00        0     13.5
    01/21/2017 04:15      1.8      282      4.4      282     45.5     45.9     45.1       71     1005     0.00        0     13.5
    01/21/2017 04:30      1.9      293      4.2      290     45.1     45.5     44.6       72     1005     0.00        0     13.5
    01/21/2017 04:45      2.4      280      5.1      254     44.8     45.0     44.5       73     1005     0.00        0     13.5
    01/21/2017 05:00      2.7      270      4.4      253     44.7     45.0     44.3       72     1005     0.00        0     13.5
    01/21/2017 05:15      1.7      298      3.8      280     43.9     44.5     43.5       75     1006     0.00        0     13.5
    01/21/2017 05:30      1.4      324      4.2      319     44.1     44.3     43.7       74     1006     0.00        0     13.5
    01/21/2017 05:45      2.5      202      4.9      184     43.2     43.7     42.9       76     1006     0.00        0     13.5
    01/21/2017 06:00      1.2      219      2.9      187     43.0     43.4     42.5       77     1007     0.00        0     13.5
    01/21/2017 06:15      1.9      217      4.9      197     42.5     42.7     42.2       78     1007     0.00        0     13.5
    01/21/2017 06:30      0.9      334      2.6      345     42.4     42.6     42.2       79     1007     0.00        0     13.5
    01/21/2017 06:45      1.7      308      4.6      274     42.3     42.6     42.1       80     1008     0.00        0     13.5
    01/21/2017 07:00      1.5      334      3.2      344     42.4     42.8     42.0       79     1008     0.00        2     13.5
    01/21/2017 07:15      1.7      336      4.4      332     42.2     42.6     41.8       79     1009     0.00       11     13.5
    01/21/2017 07:30      1.0      357      3.3      335     42.4     43.3     41.9       77     1009     0.00       38     13.5
    01/21/2017 07:45      1.0      222      2.9      206     42.7     43.2     42.4       77     1009     0.00       38     13.5
    01/21/2017 08:00      1.9      263      4.6      245     43.8     44.8     42.6       74     1010     0.00       42     13.5
    01/21/2017 08:15      0.9      312      2.2      312     45.2     45.9     44.6       72     1010     0.00       39     13.5
    01/21/2017 08:30      1.9      251      4.0      262     46.3     47.1     45.6       69     1010     0.00       37     13.5
    01/21/2017 08:45      2.0      271      6.4      262     47.6     48.2     47.0       66     1010     0.00       46     13.5
    01/21/2017 09:00      1.0      330      2.9      313     48.4     48.8     48.0       63     1011     0.00       45     13.4
    01/21/2017 09:15      1.3      329      4.1      346     49.1     49.8     48.5       59     1011     0.00      110     13.4
    01/21/2017 09:30      2.1      232      4.9      250     50.8     51.5     49.7       55     1011     0.00      182     13.4
    01/21/2017 09:45      2.9      270      6.3      257     51.7     52.1     51.1       55     1011     0.00      222     13.3
    01/21/2017 10:00      3.2      255      6.6      228     52.5     53.1     51.8       51     1012     0.00      434     13.3
    01/21/2017 10:15      2.2      237      5.1      268     53.8     54.6     53.0       49     1012     0.00      467     13.3
    01/21/2017 10:30      3.4      263      9.4      247     54.8     55.1     54.4       49     1012     0.00      494     13.2
    01/21/2017 10:45      4.7      258     11.1      252     54.6     55.0     54.1       48     1012     0.00      517     13.2
    01/21/2017 11:00      5.7      271     12.8      262     54.4     54.9     53.9       49     1012     0.00      536     13.2
    01/21/2017 11:15      5.6      270     12.9      248     54.8     55.2     54.3       51     1012     0.00      553     13.2
    01/21/2017 11:30      5.7      283     12.5      276     54.9     55.3     54.4       51     1012     0.00      581     13.2
    01/21/2017 11:45      6.0      279     15.2      252     55.2     55.6     54.7       52     1012     0.00      555     13.2
    01/21/2017 12:00      6.2      276     14.3      262     55.3     56.1     54.8       50     1012     0.00      602     13.2
    01/21/2017 12:15      5.7      280     15.4      249     56.0     56.5     55.5       52     1012     0.00      618     13.2
    01/21/2017 12:30      4.4      272      9.3      230     56.8     57.3     56.0       49     1012     0.00      597     13.2
    01/21/2017 12:45      4.0      266      9.0      241     57.5     58.0     56.8       44     1012     0.00      572     13.2
    01/21/2017 13:00      4.6      279      9.0      299     57.6     58.2     57.0       50     1012     0.00      559     13.2
    01/21/2017 13:15      4.2      239      9.9      270     58.0     58.4     57.6       44     1012     0.00      551     13.2
    01/21/2017 13:30      3.8      267     10.7      259     57.9     58.2     57.1       47     1012     0.00      423     13.1
    01/21/2017 13:45      4.0      266     10.4      255     57.4     57.9     57.0       44     1012     0.00      450     13.1
    01/21/2017 14:00      2.7      259      7.6      248     57.9     58.5     57.2       47     1012     0.00      435     13.1
    01/21/2017 14:15      2.1      255      7.0      242     58.1     58.4     57.6       45     1012     0.00      308     13.1
    01/21/2017 14:30      2.8      272      5.8      257     57.6     57.9     57.3       50     1013     0.00      251     13.1
    01/21/2017 14:45      3.1      232      7.0      232     58.1     59.1     57.3       44     1013     0.00      334     13.1
    01/21/2017 15:00      2.9      247      8.4      256     58.8     59.2     58.3       49     1013     0.00      350     13.1
    01/21/2017 15:15      2.2      255      7.3      248     58.8     59.3     58.2       45     1013     0.00      284     13.1
    01/21/2017 15:30      3.0      223      7.6      248     57.7     58.4     57.3       48     1013     0.00      179     13.1
    01/21/2017 15:45      2.5      213      5.7      239     58.4     58.8     57.9       43     1013     0.00      231     13.1
    01/21/2017 16:00      2.7      214      9.9      152     58.6     58.9     58.0       48     1013     0.00      182     13.1
    01/21/2017 16:15      3.5      234      8.0      187     57.2     58.3     56.3       54     1013     0.00       99     13.1
    01/21/2017 16:30      3.0      282      8.2      291     55.8     56.4     55.1       58     1014     0.00       52     13.2
    01/21/2017 16:45      3.2      276      7.0      248     54.9     55.3     54.5       58     1014     0.00       24     13.2
    01/21/2017 17:00      1.5      275      4.6      285     54.4     54.7     54.2       61     1014     0.00       12     13.2
    01/21/2017 17:15      2.4      287      4.3      247     53.9     54.4     53.5       62     1014     0.00        3     13.3
    01/21/2017 17:30      2.0      276      4.8      248     53.4     53.7     53.1       63     1014     0.00        0     13.3
    01/21/2017 17:45      1.3      286      3.0      298     53.0     53.4     52.6       64     1014     0.00        0     13.3
    01/21/2017 18:00      0.2      282      1.9      279     52.5     52.8     52.1       66     1014     0.00        0     13.3
    01/21/2017 18:15      0.9      290      2.5      273     52.2     52.3     52.0       66     1015     0.00        0     13.3
    01/21/2017 18:30      0.7      282      2.5      284     52.4     52.5     52.2       65     1015     0.00        0     13.3
    01/21/2017 18:45      0.4      279      2.8      264     52.3     52.5     52.1       65     1016     0.00        0     13.3
    01/21/2017 19:00      0.7       84      3.2       39     52.4     52.7     52.1       63     1016     0.00        0     13.3
    01/21/2017 19:15      1.1      211      1.9      199     52.0     52.6     51.6       66     1016     0.00        0     13.3
    01/21/2017 19:30      2.1      200      5.7      190     51.9     52.1     51.6       66     1017     0.00        0     13.3
    01/21/2017 19:45      1.8      199      5.3      235     51.6     51.9     51.3       67     1017     0.00        0     13.3
    01/21/2017 20:00      0.4      212      2.9      176     51.2     51.5     51.0       69     1017     0.00        0     13.3
    01/21/2017 20:15      0.8      246      2.7      263     51.1     51.3     50.9       70     1017     0.00        0     13.4
    01/21/2017 20:30      1.7      256      4.1      264     51.4     51.5     51.2       71     1018     0.00        0     13.4
    01/21/2017 20:45      0.3      254      2.1      255     50.9     51.4     50.2       73     1017     0.00        0     13.4
    01/21/2017 21:00      0.2      118      1.7      128     50.2     50.5     49.9       74     1017     0.00        0     13.4
    01/21/2017 21:15      2.0       96      4.2      103     50.0     50.4     49.7       74     1017     0.00        0     13.4
    01/21/2017 21:30      1.2      129      3.2      150     49.6     49.9     49.4       75     1017     0.00        0     13.4
    01/21/2017 21:45      1.1      175      3.4      153     49.9     50.2     49.5       74     1018     0.00        0     13.4
    01/21/2017 22:00      1.7       80      3.3       59     50.2     50.4     50.0       73     1018     0.00        0     13.4
    01/21/2017 22:15      1.2       89      3.9       68     50.1     50.3     49.9       73     1018     0.00        0     13.4
    01/21/2017 22:30      0.4      119      2.9      103     49.7     50.1     49.3       75     1017     0.00        0     13.4
    01/21/2017 22:45      0.5      129      3.5      154     49.3     49.6     49.0       76     1018     0.00        0     13.4
    01/21/2017 23:00      2.2      155      4.9      165     49.4     49.8     49.2       77     1018     0.00        0     13.4
    01/21/2017 23:15      3.2      173      5.0      188     49.9     50.1     49.6       76     1019     0.00        0     13.4
    01/21/2017 23:30      1.6      146      3.9      146     50.0     50.1     49.8       76     1019     0.00        0     13.4
    01/21/2017 23:45      1.3      129      3.2      174     49.9     50.1     49.7       76     1018     0.00        0     13.4
    01/22/2017 00:00      1.0      133      3.5      148     49.9     50.2     49.7       78     1018     0.00        0     13.4
    01/22/2017 00:15      1.7      131      6.0      134     50.2     50.5     49.9       78     1018     0.00        0     13.4
    01/22/2017 00:30      2.5      145      5.3      156     50.4     50.7     50.2       80     1018     0.00        0     13.4
    01/22/2017 00:45      2.7      145      5.5      147     50.2     50.4     49.9       82     1018     0.01        0     13.4
    01/22/2017 01:00      1.1      112      4.7       95     49.9     50.2     49.7       83     1018     0.01        0     13.4
    01/22/2017 01:15      1.2      146      3.3      137     49.7     50.0     49.5       84     1018     0.00        0     13.4
    01/22/2017 01:30      1.5      175      3.5      146     49.5     49.7     49.3       85     1018     0.00        0     13.4
    01/22/2017 01:45      1.0      139      3.4      158     49.6     49.8     49.3       85     1018     0.00        0     13.4
    01/22/2017 02:00      0.5      101      1.9      100     49.6     49.8     49.3       86     1018     0.02        0     13.4
    01/22/2017 02:15      1.3       97      4.1      128     49.4     49.7     49.1       87     1018     0.01        0     13.4
    01/22/2017 02:30      1.8      100      4.4      111     49.4     49.6     49.2       87     1018     0.01        0     13.4
    01/22/2017 02:45      2.1      107      5.7       79     49.3     49.5     49.1       88     1018     0.01        0     13.4
    01/22/2017 03:00      2.1      129      9.0      162     49.1     49.3     48.9       88     1018     0.02        0     13.4
    01/22/2017 03:15      6.1      173      9.5      174     49.1     49.3     48.9       89     1018     0.01        0     13.4
    01/22/2017 03:30      4.3      161     10.2      170     49.0     49.2     48.7       89     1018     0.01        0     13.4
    01/22/2017 03:45      1.8      115      5.3      148     48.8     49.2     48.4       89     1018     0.03        0     13.4
    01/22/2017 04:00      3.1       97      7.9       94     48.4     48.8     48.1       88     1017     0.00        0     13.4
    01/22/2017 04:15      2.3      111      8.4       81     48.1     48.3     47.9       88     1017     0.01        0     13.4
    01/22/2017 04:30      2.0      158      4.8      158     48.2     48.5     48.0       89     1017     0.00        0     13.4
    01/22/2017 04:45      1.8      112      4.8      153     48.4     48.6     48.2       89     1017     0.02        0     13.4
    01/22/2017 05:00      1.6      116      5.0      143     48.4     48.5     48.2       89     1017     0.01        0     13.4
    01/22/2017 05:15      1.9      110      6.0      122     48.2     48.4     48.0       89     1017     0.01        0     13.4
    01/22/2017 05:30      1.8      118      5.8       60     48.0     48.2     47.8       89     1017     0.01        0     13.4
    01/22/2017 05:45      2.0      120      7.0       86     47.8     48.1     47.5       89     1017     0.01        0     13.4
    01/22/2017 06:00      2.5      100      6.2      103     47.5     47.8     47.2       89     1017     0.03        0     13.4
    01/22/2017 06:15      3.3      102      8.1      123     47.1     47.5     46.7       88     1017     0.02        0     13.4
    01/22/2017 06:30      1.3      107      6.2      116     46.8     47.0     46.6       88     1017     0.00        0     13.4
    01/22/2017 06:45      2.2      144      6.0      172     46.6     46.9     46.3       88     1017     0.03        0     13.4
    01/22/2017 07:00      2.5      109      6.3       81     46.3     46.5     45.9       88     1017     0.01        0     13.4
    01/22/2017 07:15      2.7      155      6.4      158     46.1     46.4     45.9       88     1017     0.02        1     13.4
    01/22/2017 07:30      2.9      109      8.2       89     46.2     46.4     45.9       88     1017     0.01        6     13.4
    01/22/2017 07:45      3.1      107      7.1      126     46.3     46.5     46.1       87     1017     0.00        7     13.4
    01/22/2017 08:00      3.0      136      7.1      138     46.4     46.6     46.2       87     1018     0.01       12     13.4
    01/22/2017 08:15      2.3      130      7.1      145     46.6     46.7     46.3       87     1018     0.01       24     13.4
    01/22/2017 08:30      3.1      106      8.9      107     46.7     46.9     46.4       87     1018     0.01       28     13.4
    01/22/2017 08:45      3.3      118      8.6      122     46.8     47.1     46.6       86     1018     0.01       33     13.4
    01/22/2017 09:00      3.5      107      8.3       78     46.9     47.1     46.7       86     1017     0.01       36     13.4
    01/22/2017 09:15      4.5      110     11.7       95     47.1     47.4     46.9       85     1017     0.00       82     13.4
    01/22/2017 09:30      4.4      109     13.8       81     47.3     47.5     47.2       84     1018     0.01       32     13.4
    01/22/2017 09:45      4.3      105     16.3       90     47.3     47.5     47.1       84     1018     0.03       40     13.4
    01/22/2017 10:00      5.6      106     15.2       49     47.1     47.3     46.9       86     1017     0.03       77     13.4
    01/22/2017 10:15      4.3      106     10.8      157     46.9     47.1     46.6       87     1017     0.02       23     13.4
    01/22/2017 10:30      5.2      102     15.4      115     46.9     47.2     46.7       88     1017     0.06       57     13.4
    01/22/2017 10:45      5.6       97     14.4       53     46.9     47.2     46.7       88     1017     0.02       56     13.4
    01/22/2017 11:00      6.2       97     16.0      142     46.8     47.1     46.5       88     1016     0.04       51     13.4
    01/22/2017 11:15      6.5      107     16.0       94     46.6     46.8     46.5       89     1016     0.03       47     13.4
    01/22/2017 11:30      4.4      106     16.1       83     46.7     47.0     46.4       89     1016     0.04       25     13.4
    01/22/2017 11:45      5.3      103     17.5       71     46.6     46.9     46.4       89     1015     0.06       32     13.4
    01/22/2017 12:00      5.8      100     14.9      116     46.8     47.0     46.5       89     1015     0.04       33     13.4